Komokwa — ZJL8536 — position and weather

sailwx.info

Track history (hours):
 
Tides and Currents Weather Stations Pressure Air Temp Water Temp Dewpoint Dewpoint Depression Visibility Wind Speed Wind Dir Waves Ship Positions

Komokwa

Last reported at 2017-May-19 07:59 UTC. Time now 2017-May-24 21:31 UTC.
Position N 42°28' W 069°13'.

Length 37 m; draft 2.3 m.

Type: Ship. MMSI: 378111827.

Date/timePositionNaut miles runAvg speedWind from/ knotsBaromVisibWave heightAir tempDewpointWater temp
2017-May-19 07:59N 42°28' W 069°13'74 7.9
2017-May-18 22:35N 43°42' W 069°00'3 8.1
2017-May-18 22:13N 43°45' W 068°59'2 7.9
2017-May-18 21:56N 43°47' W 068°59'15 7.9
2017-May-18 20:06N 44°02' W 069°01'1 8.4
2017-May-18 20:00N 44°03' W 069°01'4 7.2
2017-May-18 19:29N 44°06' W 069°03'0 0.8
2017-May-18 19:00N 44°06' W 069°04'0 0.0
2017-May-18 18:26N 44°06' W 069°04'0 0.0
2017-May-18 17:57N 44°06' W 069°04'0 0.0
2017-May-18 17:28N 44°06' W 069°04'2 4.3
2017-May-18 17:00N 44°07' W 069°02'4 7.7
2017-May-18 16:29N 44°11' W 069°01'  
Track history (hours):
 
Tides and Currents Weather Stations Pressure Air Temp Water Temp Dewpoint Dewpoint Depression Visibility Wind Speed Wind Dir Waves Ship Positions

Komokwa

Last reported at 2017-May-19 07:59 UTC. Time now 2017-May-24 21:31 UTC.
Position N 42°28' W 069°13'.

Length 37 m; draft 2.3 m.

Type: Ship. MMSI: 378111827.

Date/timePositionNaut miles runAvg speedWind from/ knotsBaromVisibWave heightAir tempDewpointWater temp
2017-May-19 07:59N 42°28' W 069°13'74 7.9
2017-May-18 22:35N 43°42' W 069°00'3 8.1
2017-May-18 22:13N 43°45' W 068°59'2 7.9
2017-May-18 21:56N 43°47' W 068°59'15 7.9
2017-May-18 20:06N 44°02' W 069°01'1 8.4
2017-May-18 20:00N 44°03' W 069°01'4 7.2
2017-May-18 19:29N 44°06' W 069°03'0 0.8
2017-May-18 19:00N 44°06' W 069°04'0 0.0
2017-May-18 18:26N 44°06' W 069°04'0 0.0
2017-May-18 17:57N 44°06' W 069°04'0 0.0
2017-May-18 17:28N 44°06' W 069°04'2 4.3
2017-May-18 17:00N 44°07' W 069°02'4 7.7
2017-May-18 16:29N 44°11' W 069°01'  

Dump ship's entire track history